Time;durP1;ratioP1;P1;durP2;ratioP2;P2;SDS_P1;SDS_P2;PMS_P1;PMS_P2;Temp;Humidity;BMP_temperature;BMP_pressure;BME280_temperature;BME280_humidity;BME280_pressure;Samples;Min_cycle;Max_cycle;Signal;HPM_P1;HPM_P2
2023/01/30 00:01:26;;;;;;;1.37;1.37;;;;;;;-1.88;70.68;99796.72;4249556;33;33989;-85
2023/01/30 00:03:55;;;;;;;12.77;3.80;;;;;;;-2.10;71.19;99793.16;4249370;33;35016;-80
2023/01/30 00:06:23;;;;;;;1.73;1.67;;;;;;;-2.10;71.27;99797.38;4262308;33;35214;-85
2023/01/30 00:08:51;;;;;;;1.60;1.52;;;;;;;-2.17;71.47;99791.12;4262195;33;33523;-83
2023/01/30 00:11:20;;;;;;;6.53;3.35;;;;;;;-2.62;73.08;99790.66;4262040;33;34729;-83
2023/01/30 00:13:49;;;;;;;0.80;0.80;;;;;;;-2.13;71.78;99790.47;4261995;33;35215;-75
2023/01/30 00:16:17;;;;;;;10.25;7.07;;;;;;;-2.19;72.14;99785.09;4261954;33;34651;-85
2023/01/30 00:18:46;;;;;;;1.40;1.37;;;;;;;-2.00;71.60;99786.78;4262161;33;33571;-75
2023/01/30 00:21:14;;;;;;;0.82;0.82;;;;;;;-1.44;69.61;99786.78;4262133;33;34077;-86
2023/01/30 00:23:43;;;;;;;1.23;1.23;;;;;;;-1.87;70.46;99787.37;4261995;33;35163;-85
2023/01/30 00:26:12;;;;;;;1.52;1.42;;;;;;;-1.93;70.40;99785.41;4261986;33;34489;-85
2023/01/30 00:28:40;;;;;;;3.17;2.80;;;;;;;-1.89;71.15;99782.19;4262017;33;34373;-75
2023/01/30 00:31:08;;;;;;;8.65;2.25;;;;;;;-2.69;73.46;99788.59;4261807;33;33944;-86
2023/01/30 00:33:38;;;;;;;1.42;1.37;;;;;;;-2.23;72.62;99782.31;4249253;33;35111;-75
2023/01/30 00:36:06;;;;;;;1.50;1.42;;;;;;;-2.54;73.42;99783.38;4261992;33;34488;-83
2023/01/30 00:38:35;;;;;;;1.27;1.27;;;;;;;-1.98;71.61;99780.09;4261817;33;33845;-86
2023/01/30 00:41:06;;;;;;;4.00;3.65;;;;;;;-2.26;72.19;99775.38;4261934;33;34768;-85
2023/01/30 00:49:19;;;;;;;8.55;5.72;;;;;;;-2.87;74.21;99769.06;4251180;33;33403;-76
2023/01/30 00:51:48;;;;;;;1.95;1.85;;;;;;;-2.61;74.07;99766.94;4261732;33;33765;-85
2023/01/30 00:54:16;;;;;;;13.68;5.03;;;;;;;-2.46;73.32;99768.47;4261875;33;35567;-75
2023/01/30 00:56:44;;;;;;;0.80;0.80;;;;;;;-2.59;73.52;99767.00;4261908;33;34357;-86
2023/01/30 00:59:13;;;;;;;0.93;0.93;;;;;;;-2.35;72.41;99764.72;4261960;33;33733;-85
2023/01/30 01:01:41;;;;;;;0.80;0.80;;;;;;;-2.72;73.31;99765.50;4261832;33;33797;-75
2023/01/30 01:04:09;;;;;;;1.20;1.20;;;;;;;-3.01;75.01;99762.41;4261756;33;35924;-75
2023/01/30 01:06:38;;;;;;;0.80;0.80;;;;;;;-2.50;73.24;99758.09;4261642;33;35382;-85
2023/01/30 01:09:06;;;;;;;1.08;1.08;;;;;;;-2.48;73.80;99753.94;4262100;33;33647;-75
2023/01/30 01:11:35;;;;;;;0.80;0.80;;;;;;;-2.22;72.88;99751.78;4261716;33;34327;-86
2023/01/30 01:14:05;;;;;;;0.80;0.80;;;;;;;-2.83;74.33;99743.72;4261752;33;35089;-84
2023/01/30 01:16:34;;;;;;;0.90;0.90;;;;;;;-2.79;75.02;99735.44;4261668;33;34477;-84
2023/01/30 01:19:03;;;;;;;0.90;0.90;;;;;;;-2.30;73.26;99740.31;4261583;33;33433;-75
2023/01/30 01:21:31;;;;;;;0.90;0.90;;;;;;;-2.41;73.13;99744.06;4261977;33;34849;-79
2023/01/30 01:24:00;;;;;;;0.90;0.90;;;;;;;-2.40;72.78;99740.69;4261590;33;35057;-83
2023/01/30 01:26:28;;;;;;;2.60;2.50;;;;;;;-2.75;74.35;99737.34;4261658;33;34551;-83
2023/01/30 01:28:57;;;;;;;6.37;4.07;;;;;;;-2.44;73.70;99731.16;4261714;33;33654;-84
2023/01/30 01:31:25;;;;;;;1.62;1.52;;;;;;;-2.35;72.75;99731.59;4261440;33;34153;-76
2023/01/30 01:33:55;;;;;;;1.00;1.00;;;;;;;-2.54;73.55;99720.53;4261613;33;35920;-85
2023/01/30 01:36:25;;;;;;;0.95;0.95;;;;;;;-2.16;72.50;99728.22;4249065;33;34534;-76
2023/01/30 01:39:15;;;;;;;1.67;1.60;;;;;;;-2.33;73.63;99722.31;4261328;33;34370;-76
2023/01/30 01:41:43;;;;;;;0.90;0.90;;;;;;;-2.49;72.86;99725.81;4261637;33;34408;-86
2023/01/30 01:44:13;;;;;;;1.77;1.73;;;;;;;-2.02;72.25;99723.75;4261466;33;35138;-84
2023/01/30 01:46:47;;;;;;;0.80;0.80;;;;;;;-2.34;72.83;99711.25;4261525;33;34975;-85
2023/01/30 01:49:22;;;;;;;2.75;2.35;;;;;;;-2.34;73.71;99712.94;4248873;33;34361;-75
2023/01/30 01:52:02;;;;;;;1.05;1.05;;;;;;;-1.80;71.43;99711.16;4261422;33;33992;-76
2023/01/30 01:54:35;;;;;;;0.80;0.80;;;;;;;-2.39;73.02;99707.59;4261501;33;36072;-75
2023/01/30 01:57:10;;;;;;;0.80;0.80;;;;;;;-1.78;71.32;99694.22;4248868;33;34676;-86
2023/01/30 01:59:43;;;;;;;0.80;0.80;;;;;;;-2.57;73.77;99687.22;4247557;33;33242;-85
2023/01/30 02:02:13;;;;;;;1.00;1.00;;;;;;;-1.79;71.57;99678.84;4248673;33;33767;-75
2023/01/30 02:05:03;;;;;;;0.93;0.93;;;;;;;-2.66;73.82;99686.81;4248622;33;34908;-83
2023/01/30 02:08:00;;;;;;;0.85;0.85;;;;;;;-2.25;73.20;99680.19;4250631;33;34803;-83
2023/01/30 02:10:49;;;;;;;0.73;0.73;;;;;;;-2.44;72.79;99677.59;4261401;33;33438;-86
2023/01/30 02:13:18;;;;;;;2.65;1.87;;;;;;;-2.75;74.68;99671.09;4248514;33;34056;-85
2023/01/30 02:15:47;;;;;;;0.80;0.80;;;;;;;-2.54;74.21;99661.00;4248507;33;35134;-75
2023/01/30 02:18:15;;;;;;;1.27;1.25;;;;;;;-2.26;73.42;99663.13;4261213;33;34455;-84
2023/01/30 02:20:54;;;;;;;1.98;1.87;;;;;;;-2.56;73.92;99660.94;4261165;33;33483;-85
2023/01/30 02:23:28;;;;;;;0.95;0.95;;;;;;;-2.81;75.27;99650.37;4248359;33;34830;-81
2023/01/30 02:26:32;;;;;;;4.18;2.65;;;;;;;-2.29;73.24;99655.38;4261058;33;36162;-74
2023/01/30 02:29:31;;;;;;;1.77;1.67;;;;;;;-2.45;73.23;99650.34;4244526;33;35472;-85
2023/01/30 02:32:12;;;;;;;1.67;1.58;;;;;;;-2.41;73.68;99644.59;4248490;33;34205;-85
2023/01/30 02:34:44;;;;;;;1.02;1.02;;;;;;;-2.53;73.17;99638.13;4261028;33;34000;-78
2023/01/30 02:37:15;;;;;;;0.80;0.80;;;;;;;-2.66;73.52;99638.38;4248393;33;35060;-85
2023/01/30 02:40:06;;;;;;;0.93;0.93;;;;;;;-2.37;73.16;99646.47;4260710;33;34572;-85
2023/01/30 02:42:59;;;;;;;0.90;0.90;;;;;;;-2.29;72.04;99632.41;4260928;33;33597;-85
2023/01/30 02:45:53;;;;;;;1.37;1.37;;;;;;;-1.58;69.46;99631.25;4260899;33;33788;-75
2023/01/30 02:48:26;;;;;;;3.05;2.85;;;;;;;-1.79;69.41;99620.13;4260884;33;35993;-84
2023/01/30 02:51:00;;;;;;;0.80;0.80;;;;;;;-2.69;72.51;99615.28;4247958;33;34452;-85
2023/01/30 02:53:32;;;;;;;1.67;1.62;;;;;;;-2.61;72.70;99613.06;4260842;33;33689;-84
2023/01/30 02:56:02;;;;;;;1.80;1.70;;;;;;;-2.54;72.39;99613.44;4260899;33;34767;-75
2023/01/30 02:58:36;;;;;;;1.17;1.17;;;;;;;-1.83;69.94;99603.81;4260655;33;34160;-75
2023/01/30 03:01:11;;;;;;;1.45;1.35;;;;;;;-2.22;70.95;99592.72;4248124;33;35112;-84
2023/01/30 03:04:05;;;;;;;0.90;0.90;;;;;;;-2.76;72.81;99593.72;4260653;33;34127;-85
2023/01/30 03:06:47;;;;;;;1.23;1.23;;;;;;;-2.33;71.63;99590.59;4247924;33;33773;-84
2023/01/30 03:09:48;;;;;;;0.98;0.98;;;;;;;-2.37;70.45;99587.81;4247797;33;34976;-79
2023/01/30 03:12:24;;;;;;;1.20;1.20;;;;;;;-2.58;72.25;99587.72;4258122;33;34326;-74
2023/01/30 03:14:59;;;;;;;2.62;2.53;;;;;;;-2.34;71.21;99593.06;4262723;33;34270;-75
2023/01/30 03:17:29;;;;;;;1.65;1.62;;;;;;;-3.40;74.59;99589.00;4250097;33;33764;-84
2023/01/30 03:19:58;;;;;;;0.80;0.80;;;;;;;-2.50;71.81;99591.50;4249886;33;35826;-85
2023/01/30 03:22:26;;;;;;;2.30;2.08;;;;;;;-2.48;71.40;99590.75;4261290;33;34470;-78
2023/01/30 03:24:56;;;;;;;1.48;1.45;;;;;;;-2.39;70.58;99592.00;4262494;33;33544;-81
2023/01/30 03:27:24;;;;;;;4.07;3.67;;;;;;;-2.64;71.25;99587.47;4262608;33;33804;-83
2023/01/30 03:29:53;;;;;;;4.12;3.92;;;;;;;-2.97;72.07;99592.72;4262311;33;34930;-83
2023/01/30 03:32:21;;;;;;;2.15;2.05;;;;;;;-3.27;73.37;99588.78;4262278;33;34468;-75
2023/01/30 03:34:50;;;;;;;1.00;1.00;;;;;;;-3.71;75.32;99584.94;4262733;33;34078;-85
2023/01/30 03:37:18;;;;;;;1.55;1.52;;;;;;;-3.74;76.76;99579.72;4262652;33;33957;-84
2023/01/30 03:39:47;;;;;;;0.90;0.90;;;;;;;-2.90;72.08;99580.34;4262358;33;35486;-74
2023/01/30 03:42:16;;;;;;;0.90;0.90;;;;;;;-2.99;71.75;99569.72;4262557;33;34447;-76
2023/01/30 03:44:44;;;;;;;2.67;2.35;;;;;;;-3.31;72.68;99566.53;4249817;33;33714;-85
2023/01/30 03:47:13;;;;;;;1.75;1.70;;;;;;;-3.08;71.43;99564.22;4262578;33;33865;-75
2023/01/30 03:49:41;;;;;;;0.90;0.90;;;;;;;-3.16;70.74;99560.41;4262438;33;34948;-78
2023/01/30 03:52:09;;;;;;;0.90;0.90;;;;;;;-3.07;69.38;99561.75;4262454;33;35212;-85
2023/01/30 03:54:38;;;;;;;0.90;0.90;;;;;;;-3.34;69.77;99561.28;4262277;33;33558;-75
2023/01/30 03:57:06;;;;;;;1.00;1.00;;;;;;;-3.31;69.52;99563.97;4262525;33;34259;-75
2023/01/30 03:59:34;;;;;;;0.90;0.90;;;;;;;-3.36;69.51;99556.94;4262123;33;35061;-84
2023/01/30 04:02:03;;;;;;;0.95;0.95;;;;;;;-3.72;71.23;99554.34;4262436;33;34481;-82
2023/01/30 04:04:32;;;;;;;9.48;4.20;;;;;;;-3.58;70.62;99544.81;4249583;33;33407;-75
2023/01/30 04:07:00;;;;;;;1.05;1.05;;;;;;;-3.66;70.93;99552.94;4262367;33;34016;-85
2023/01/30 04:09:29;;;;;;;1.00;1.00;;;;;;;-3.79;71.36;99545.53;4249708;33;35844;-85
2023/01/30 04:11:58;;;;;;;1.37;1.37;;;;;;;-3.57;69.90;99549.13;4262202;33;35251;-76
2023/01/30 04:14:27;;;;;;;1.00;1.00;;;;;;;-3.57;70.17;99546.56;4262490;33;33400;-74
2023/01/30 04:17:02;;;;;;;1.00;1.00;;;;;;;-3.60;70.34;99536.25;4262067;33;34017;-80
2023/01/30 04:19:34;;;;;;;2.60;2.40;;;;;;;-3.82;71.39;99535.19;4262368;33;35018;-77
2023/01/30 04:22:02;;;;;;;4.25;2.60;;;;;;;-3.78;71.53;99537.06;4261238;33;34435;-84
2023/01/30 04:24:30;;;;;;;1.25;1.25;;;;;;;-3.51;69.87;99541.78;4262101;33;33558;-85
2023/01/30 04:26:58;;;;;;;1.05;1.05;;;;;;;-3.96;70.75;99542.13;4262075;33;34012;-76
2023/01/30 04:29:27;;;;;;;3.17;2.87;;;;;;;-3.86;70.61;99540.94;4262211;33;35111;-83
2023/01/30 04:31:56;;;;;;;0.90;0.90;;;;;;;-3.88;72.28;99532.34;4249480;33;34376;-75
2023/01/30 04:34:24;;;;;;;0.90;0.90;;;;;;;-4.33;75.29;99532.62;4262232;33;33545;-84
2023/01/30 04:36:53;;;;;;;1.27;1.23;;;;;;;-5.73;77.35;99532.72;4262182;33;34986;-83
2023/01/30 04:39:21;;;;;;;1.10;1.10;;;;;;;-4.86;77.11;99531.56;4261640;33;35706;-84
2023/01/30 04:41:50;;;;;;;1.00;1.00;;;;;;;-4.68;74.67;99528.25;4261951;33;35238;-84
2023/01/30 04:44:19;;;;;;;0.90;0.90;;;;;;;-3.92;71.84;99515.19;4262032;33;33578;-84
2023/01/30 04:46:47;;;;;;;1.08;1.08;;;;;;;-3.93;71.38;99508.38;4262172;33;33904;-84
2023/01/30 04:49:15;;;;;;;1.42;1.42;;;;;;;-4.16;71.90;99497.00;4262148;33;35717;-79
2023/01/30 04:51:44;;;;;;;1.00;1.00;;;;;;;-4.47;74.55;99503.97;4261725;33;34935;-85
2023/01/30 04:54:12;;;;;;;1.30;1.30;;;;;;;-4.65;74.20;99503.03;4261847;33;34133;-76
2023/01/30 04:56:41;;;;;;;3.72;3.47;;;;;;;-5.08;75.95;99498.19;4261821;33;34035;-85
2023/01/30 04:59:09;;;;;;;1.30;1.30;;;;;;;-4.43;73.13;99502.44;4263056;33;35133;-82
2023/01/30 05:01:38;;;;;;;1.00;1.00;;;;;;;-4.24;71.88;99494.09;4259963;33;35241;-76
2023/01/30 05:04:07;;;;;;;1.87;1.77;;;;;;;-5.57;75.92;99502.34;4260761;33;34144;-72
2023/01/30 05:06:36;;;;;;;0.90;0.90;;;;;;;-5.68;75.36;99503.41;4261519;33;33999;-75
2023/01/30 05:09:05;;;;;;;1.15;1.15;;;;;;;-5.25;75.29;99494.75;4248800;33;35776;-73
2023/01/30 05:11:33;;;;;;;1.92;1.83;;;;;;;-4.45;72.43;99489.66;4261523;33;35244;-72
2023/01/30 05:14:02;;;;;;;2.20;2.10;;;;;;;-4.88;72.66;99495.06;4261604;33;33580;-71
2023/01/30 05:16:30;;;;;;;1.00;1.00;;;;;;;-4.26;72.69;99488.94;4261430;33;34833;-74
2023/01/30 05:18:58;;;;;;;2.92;2.33;;;;;;;-4.06;71.18;99484.88;4261576;33;35036;-75
2023/01/30 05:21:27;;;;;;;3.10;2.92;;;;;;;-4.92;73.41;99489.72;4248603;33;34587;-74
2023/01/30 05:23:56;;;;;;;1.00;1.00;;;;;;;-4.31;71.52;99492.03;4261543;33;34489;-73
2023/01/30 05:26:24;;;;;;;2.47;2.35;;;;;;;-5.37;74.37;99487.34;4261437;33;34617;-79
2023/01/30 05:28:54;;;;;;;1.00;1.00;;;;;;;-4.51;73.56;99484.28;4261478;33;35072;-76
2023/01/30 05:31:23;;;;;;;1.10;1.10;;;;;;;-4.34;72.24;99490.25;4261270;33;36072;-72
2023/01/30 05:33:51;;;;;;;1.62;1.58;;;;;;;-5.26;75.64;99486.28;4261204;33;34345;-74
2023/01/30 05:36:22;;;;;;;1.35;1.35;;;;;;;-4.93;75.26;99488.88;4261210;33;33919;-73
2023/01/30 05:38:50;;;;;;;2.42;2.28;;;;;;;-4.56;74.04;99480.63;4248499;33;35816;-82
2023/01/30 05:41:18;;;;;;;5.35;4.30;;;;;;;-4.53;74.50;99483.34;4261242;33;34499;-82
2023/01/30 05:43:50;;;;;;;1.80;1.70;;;;;;;-4.37;73.25;99479.03;4248717;33;33434;-73
2023/01/30 05:46:18;;;;;;;4.72;4.40;;;;;;;-4.58;74.67;99482.22;4248416;33;34830;-76
2023/01/30 05:48:47;;;;;;;2.28;2.17;;;;;;;-4.16;72.61;99467.41;4261259;33;35857;-73
2023/01/30 05:51:23;;;;;;;1.10;1.10;;;;;;;-5.46;76.37;99474.16;4261231;33;34914;-73
2023/01/30 05:53:52;;;;;;;2.12;2.03;;;;;;;-5.42;78.05;99481.13;4247144;33;33502;-76
2023/01/30 05:56:20;;;;;;;1.15;1.15;;;;;;;-5.19;76.90;99485.81;4247336;33;34763;-80
2023/01/30 05:58:53;;;;;;;1.10;1.10;;;;;;;-4.64;76.28;99482.78;4261141;33;35981;-81
2023/01/30 06:01:22;;;;;;;1.00;1.00;;;;;;;-5.11;76.16;99487.91;4260963;33;35211;-73
2023/01/30 06:03:51;;;;;;;2.42;2.33;;;;;;;-4.95;76.31;99490.44;4261250;33;33199;-72
2023/01/30 06:06:20;;;;;;;1.95;1.85;;;;;;;-4.35;73.00;99485.06;4248553;33;34068;-80
2023/01/30 06:08:52;;;;;;;1.00;1.00;;;;;;;-4.08;70.83;99486.44;4234235;33;35737;-81
2023/01/30 06:11:20;;;;;;;1.08;1.08;;;;;;;-4.22;70.41;99487.41;4246854;33;34485;-78
2023/01/30 06:13:49;;;;;;;1.33;1.33;;;;;;;-5.46;75.10;99484.31;4234135;33;33414;-77
2023/01/30 06:16:18;;;;;;;1.37;1.37;;;;;;;-4.98;76.70;99485.19;4246850;33;33865;-80
2023/01/30 06:18:46;;;;;;;1.67;1.58;;;;;;;-4.45;74.42;99481.16;4260554;33;35940;-84
2023/01/30 06:21:15;;;;;;;2.30;2.20;;;;;;;-4.54;73.80;99479.03;4260049;33;34516;-73
2023/01/30 06:23:43;;;;;;;2.65;2.55;;;;;;;-5.17;76.39;99481.69;4261146;33;33526;-77
2023/01/30 06:26:12;;;;;;;1.00;1.00;;;;;;;-4.30;74.94;99473.47;4261022;33;34148;-74
2023/01/30 06:28:40;;;;;;;1.37;1.37;;;;;;;-4.40;75.38;99485.69;4260984;33;35939;-84
2023/01/30 06:31:09;;;;;;;1.33;1.33;;;;;;;-4.59;76.46;99480.47;4248250;33;34434;-85
2023/01/30 06:33:37;;;;;;;1.42;1.42;;;;;;;-4.21;75.49;99479.00;4260952;33;34184;-81
2023/01/30 06:36:06;;;;;;;3.40;2.00;;;;;;;-4.60;77.37;99488.91;4260856;33;34062;-75
2023/01/30 06:38:34;;;;;;;1.12;1.12;;;;;;;-4.16;77.26;99479.22;4260777;33;35100;-81
2023/01/30 06:41:03;;;;;;;0.90;0.90;;;;;;;-4.34;78.18;99469.00;4260779;33;34591;-82
2023/01/30 06:43:31;;;;;;;0.90;0.90;;;;;;;-4.08;77.13;99472.84;4260906;33;33395;-84
2023/01/30 06:45:59;;;;;;;0.90;0.90;;;;;;;-3.83;77.26;99469.84;4261768;33;34728;-85
2023/01/30 06:48:28;;;;;;;1.17;1.17;;;;;;;-3.66;77.52;99461.34;4262638;33;35034;-85
2023/01/30 06:50:56;;;;;;;0.90;0.90;;;;;;;-3.59;77.78;99454.00;4262556;33;34463;-83
2023/01/30 06:53:29;;;;;;;0.90;0.90;;;;;;;-3.46;78.35;99454.66;4262442;33;33351;-80
2023/01/30 06:55:58;;;;;;;1.00;1.00;;;;;;;-3.26;78.48;99467.44;4262626;33;34333;-74
2023/01/30 06:58:27;;;;;;;0.80;0.80;;;;;;;-3.06;79.05;99469.22;4249559;33;34292;-74
2023/01/30 07:00:55;;;;;;;0.80;0.80;;;;;;;-2.77;79.57;99463.69;4249836;33;35138;-78
2023/01/30 07:03:24;;;;;;;2.28;2.10;;;;;;;-2.60;79.52;99460.19;4249866;33;33761;-83
2023/01/30 07:05:52;;;;;;;1.77;1.65;;;;;;;-2.44;79.94;99461.72;4262490;33;34207;-81
2023/01/30 07:08:20;;;;;;;3.12;1.77;;;;;;;-2.48;78.68;99455.62;4262455;33;35895;-85
2023/01/30 07:10:51;;;;;;;0.90;0.90;;;;;;;-1.57;79.12;99450.81;4262579;33;34479;-85
2023/01/30 07:13:19;;;;;;;4.03;2.25;;;;;;;-0.43;77.96;99444.81;4262472;33;33454;-84
2023/01/30 07:15:47;;;;;;;3.42;3.20;;;;;;;0.15;74.64;99457.03;4262381;33;33827;-75
2023/01/30 07:18:15;;;;;;;1.27;1.27;;;;;;;1.42;72.32;99450.56;4262353;33;36076;-74
2023/01/30 07:20:47;;;;;;;3.17;2.92;;;;;;;1.93;68.77;99452.78;4262433;33;34560;-75
2023/01/30 07:23:16;;;;;;;0.70;0.70;;;;;;;2.49;65.85;99455.03;4249725;33;33294;-78
2023/01/30 07:25:45;;;;;;;0.70;0.70;;;;;;;2.17;66.09;99449.09;4262415;33;34684;-78
2023/01/30 07:28:13;;;;;;;1.05;0.98;;;;;;;1.43;67.67;99453.19;4262320;33;35217;-74
2023/01/30 07:30:41;;;;;;;4.03;1.45;;;;;;;1.41;68.35;99454.84;4262458;33;35120;-86
2023/01/30 07:33:09;;;;;;;2.40;1.35;;;;;;;0.76;69.75;99454.69;4262397;33;33950;-85
2023/01/30 07:35:38;;;;;;;2.35;2.17;;;;;;;1.32;69.98;99447.75;4262364;33;33959;-74
2023/01/30 07:38:08;;;;;;;1.60;1.55;;;;;;;1.05;69.38;99452.97;4262362;33;34972;-86
2023/01/30 07:40:36;;;;;;;1.50;1.45;;;;;;;1.30;68.60;99444.25;4262100;33;34771;-74
2023/01/30 07:43:09;;;;;;;0.70;0.70;;;;;;;0.93;70.60;99453.47;4262343;33;33500;-75
2023/01/30 07:45:40;;;;;;;0.90;0.90;;;;;;;0.84;70.41;99457.47;4249769;33;33959;-84
2023/01/30 07:48:11;;;;;;;0.98;0.98;;;;;;;-0.17;74.32;99447.41;4262363;33;35110;-83
2023/01/30 07:50:41;;;;;;;0.80;0.80;;;;;;;0.71;72.01;99448.53;4262231;33;34551;-86
2023/01/30 07:53:11;;;;;;;0.70;0.70;;;;;;;1.39;69.33;99430.81;4262455;33;33530;-86
2023/01/30 07:55:40;;;;;;;1.65;1.55;;;;;;;1.42;68.95;99427.50;4262232;33;33997;-80
2023/01/30 07:58:15;;;;;;;5.43;4.15;;;;;;;0.86;70.60;99441.28;4261064;33;35997;-85
2023/01/30 08:00:43;;;;;;;5.78;1.83;;;;;;;1.18;70.95;99427.66;4249354;33;34446;-76
2023/01/30 08:03:14;;;;;;;5.22;2.55;;;;;;;1.57;69.77;99427.03;4262266;33;34152;-86
2023/01/30 08:05:45;;;;;;;0.95;0.95;;;;;;;1.88;67.01;99426.97;4262252;33;35211;-86
2023/01/30 08:08:14;;;;;;;1.48;1.45;;;;;;;2.11;66.33;99420.69;4262188;33;35822;-78
2023/01/30 08:10:42;;;;;;;4.37;3.35;;;;;;;1.96;66.27;99411.78;4262141;33;34527;-85
2023/01/30 08:13:11;;;;;;;3.10;1.75;;;;;;;0.90;71.42;99416.59;4262068;33;33589;-86
2023/01/30 08:15:39;;;;;;;1.23;1.17;;;;;;;1.44;69.19;99416.41;4262216;33;34767;-85
2023/01/30 08:18:07;;;;;;;2.00;1.90;;;;;;;0.74;70.38;99384.53;4262021;33;35759;-84
2023/01/30 08:20:36;;;;;;;1.83;1.73;;;;;;;1.72;67.32;99376.09;4262031;33;34520;-75
2023/01/30 08:23:04;;;;;;;0.70;0.70;;;;;;;1.50;68.57;99370.41;4262128;33;33436;-86
2023/01/30 08:25:34;;;;;;;0.90;0.90;;;;;;;0.95;70.33;99366.34;4262107;33;34008;-85
2023/01/30 08:28:03;;;;;;;0.60;0.60;;;;;;;0.78;71.50;99357.28;4262072;33;35086;-86
2023/01/30 08:30:31;;;;;;;3.22;3.03;;;;;;;0.73;71.92;99367.44;4249349;33;35314;-83
2023/01/30 08:32:59;;;;;;;4.22;3.92;;;;;;;1.04;70.07;99364.06;4249289;33;33449;-73
2023/01/30 08:35:31;;;;;;;2.17;2.03;;;;;;;1.28;69.63;99368.97;4261849;33;33995;-83
2023/01/30 08:37:59;;;;;;;0.70;0.70;;;;;;;1.06;70.22;99367.53;4261940;33;34969;-84
2023/01/30 08:40:27;;;;;;;2.25;2.15;;;;;;;0.38;72.94;99365.56;4261623;33;34500;-85
2023/01/30 08:42:55;;;;;;;0.80;0.80;;;;;;;0.55;72.36;99373.75;4261929;33;33535;-78
2023/01/30 08:45:23;;;;;;;1.15;1.12;;;;;;;0.08;74.26;99355.22;4261935;33;34906;-86
2023/01/30 08:47:51;;;;;;;2.17;2.08;;;;;;;0.18;74.65;99359.81;4261955;33;35108;-86
2023/01/30 08:50:19;;;;;;;1.42;1.42;;;;;;;0.47;73.92;99362.41;4261842;33;34351;-85
2023/01/30 08:52:48;;;;;;;2.80;1.27;;;;;;;0.76;72.91;99357.28;4261861;33;33368;-83
2023/01/30 08:55:17;;;;;;;3.00;2.87;;;;;;;0.48;72.70;99359.03;4261938;33;33946;-84
2023/01/30 08:57:46;;;;;;;2.87;1.95;;;;;;;0.52;74.05;99355.72;4237688;33;35508;-73
2023/01/30 09:00:15;;;;;;;1.67;1.58;;;;;;;0.88;72.66;99357.62;4249141;33;35310;-78
2023/01/30 09:02:44;;;;;;;1.00;1.00;;;;;;;0.94;72.41;99362.91;4249071;33;32979;-81
2023/01/30 09:05:15;;;;;;;1.10;1.10;;;;;;;1.01;73.18;99363.09;4261856;33;34654;-74
2023/01/30 09:07:43;;;;;;;4.37;3.42;;;;;;;1.43;71.89;99362.50;4248572;33;35015;-75
2023/01/30 09:10:11;;;;;;;1.27;1.17;;;;;;;1.42;69.68;99350.53;4260710;33;34423;-82
2023/01/30 09:12:40;;;;;;;4.87;2.70;;;;;;;0.44;72.87;99354.66;4249337;33;32838;-78
2023/01/30 09:15:09;;;;;;;0.77;0.77;;;;;;;0.57;74.20;99349.03;4248815;33;33742;-84
2023/01/30 09:17:37;;;;;;;0.70;0.70;;;;;;;0.46;74.40;99340.19;4261723;33;35113;-76
2023/01/30 09:20:07;;;;;;;1.98;1.77;;;;;;;0.51;75.54;99351.44;4261732;33;34361;-74
2023/01/30 09:22:36;;;;;;;1.15;1.15;;;;;;;0.83;75.75;99343.81;4261589;33;32780;-75
2023/01/30 09:25:05;;;;;;;0.98;0.98;;;;;;;0.61;76.42;99334.62;4261734;33;34627;-74
2023/01/30 09:27:33;;;;;;;0.70;0.70;;;;;;;0.84;74.77;99332.72;4237162;33;35869;-86
2023/01/30 09:30:03;;;;;;;0.70;0.70;;;;;;;0.80;74.61;99325.78;4248898;33;32861;-82
2023/01/30 09:32:31;;;;;;;1.20;1.20;;;;;;;0.72;74.53;99330.69;4247541;33;33637;-78
2023/01/30 09:34:59;;;;;;;1.30;1.30;;;;;;;1.06;73.22;99328.16;4261624;33;33886;-74
2023/01/30 09:37:27;;;;;;;2.55;2.25;;;;;;;0.52;75.36;99332.66;4248615;33;33076;-79
2023/01/30 09:39:55;;;;;;;0.75;0.75;;;;;;;0.52;75.64;99335.22;4246091;33;33225;-81
2023/01/30 09:42:29;;;;;;;1.27;1.27;;;;;;;0.35;75.98;99318.50;4247394;33;33470;-74
2023/01/30 09:45:03;;;;;;;1.58;1.52;;;;;;;0.44;75.72;99328.13;4247570;33;33993;-76
2023/01/30 09:47:38;;;;;;;0.80;0.80;;;;;;;0.67;76.85;99310.88;4247373;33;34611;-82
2023/01/30 09:50:26;;;;;;;2.90;2.72;;;;;;;0.43;77.43;99304.22;4257825;33;34153;-75
2023/01/30 09:52:58;;;;;;;3.10;2.90;;;;;;;0.45;77.48;99300.00;4246264;33;32941;-84
2023/01/30 09:55:29;;;;;;;2.17;2.05;;;;;;;0.54;76.00;99300.25;4246050;33;32356;-84
2023/01/30 09:57:59;;;;;;;1.45;1.40;;;;;;;0.51;78.69;99295.09;4246133;33;34373;-82
2023/01/30 10:00:31;;;;;;;0.95;0.95;;;;;;;0.24;79.15;99294.25;4257931;33;32913;-82
2023/01/30 10:03:13;;;;;;;1.55;1.45;;;;;;;0.79;76.69;99280.44;4246057;33;33508;-84
2023/01/30 10:05:45;;;;;;;0.93;0.93;;;;;;;0.49;77.14;99276.19;4247308;33;34013;-74
2023/01/30 10:08:16;;;;;;;4.43;4.03;;;;;;;0.48;77.45;99282.19;4246241;33;33219;-86
2023/01/30 10:10:48;;;;;;;1.80;1.73;;;;;;;0.47;77.58;99270.19;4257888;33;34400;-85
2023/01/30 10:13:43;;;;;;;1.60;1.50;;;;;;;0.53;77.17;99270.37;4247244;33;33550;-87
2023/01/30 10:16:20;;;;;;;3.17;1.87;;;;;;;0.98;76.38;99255.31;4247549;33;33763;-83
2023/01/30 10:19:07;;;;;;;1.48;1.00;;;;;;;1.94;73.05;99254.25;4234809;33;34263;-79
2023/01/30 10:22:15;;;;;;;2.42;2.25;;;;;;;1.69;72.19;99245.09;4249519;33;33676;-87
2023/01/30 10:24:46;;;;;;;0.77;0.77;;;;;;;1.84;71.37;99248.03;4234683;33;33668;-79
2023/01/30 10:27:17;;;;;;;0.70;0.70;;;;;;;1.58;72.94;99239.72;4249435;33;34034;-74
2023/01/30 10:30:05;;;;;;;1.80;1.70;;;;;;;2.26;70.54;99236.09;4248331;33;35320;-76
2023/01/30 10:32:36;;;;;;;0.60;0.60;;;;;;;2.08;70.06;99232.31;4248922;33;32916;-75
2023/01/30 10:35:17;;;;;;;1.95;1.70;;;;;;;1.66;72.28;99227.94;4260317;33;34146;-75
2023/01/30 10:37:54;;;;;;;0.70;0.70;;;;;;;1.48;72.37;99212.09;4236655;33;32636;-84
2023/01/30 10:40:34;;;;;;;1.83;1.73;;;;;;;2.03;70.80;99215.03;4257690;33;35014;-86
2023/01/30 10:43:26;;;;;;;2.92;2.75;;;;;;;2.12;70.30;99204.97;4250428;33;34334;-74
2023/01/30 10:46:10;;;;;;;1.27;1.27;;;;;;;2.17;70.83;99202.50;4262236;33;34252;-83
2023/01/30 10:49:01;;;;;;;1.02;1.02;;;;;;;2.74;69.23;99189.06;4239742;33;34339;-88
2023/01/30 10:51:51;;;;;;;2.53;2.42;;;;;;;2.89;67.14;99188.44;4251380;33;35040;-87
2023/01/30 10:54:37;;;;;;;1.17;1.17;;;;;;;2.52;67.04;99176.63;4263729;33;35305;-75
2023/01/30 10:57:23;;;;;;;3.80;3.47;;;;;;;2.41;68.21;99161.88;4251603;33;33766;-88
2023/01/30 11:00:01;;;;;;;0.90;0.90;;;;;;;1.85;69.74;99151.31;4263409;33;34022;-88
2023/01/30 11:02:58;;;;;;;0.80;0.80;;;;;;;2.09;69.60;99150.97;4251743;33;35064;-76
2023/01/30 11:05:43;;;;;;;2.08;1.67;;;;;;;2.04;70.12;99148.31;4265010;33;34439;-82
2023/01/30 11:08:22;;;;;;;1.60;1.50;;;;;;;1.93;70.46;99144.66;4252103;33;32698;-92
2023/01/30 11:10:54;;;;;;;1.45;1.30;;;;;;;2.13;69.85;99136.50;4240935;33;32439;-90
2023/01/30 11:13:30;;;;;;;0.90;0.90;;;;;;;2.04;70.65;99121.75;4264720;33;36030;-88
2023/01/30 11:16:05;;;;;;;0.90;0.90;;;;;;;1.71;72.90;99122.78;4263865;33;34625;-81
2023/01/30 11:18:46;;;;;;;1.70;1.60;;;;;;;2.28;71.43;99116.25;4252952;33;33757;-90
2023/01/30 11:21:34;;;;;;;2.08;1.98;;;;;;;1.95;71.92;99108.75;4254542;33;33894;-93
2023/01/30 11:24:36;;;;;;;0.88;0.88;;;;;;;2.40;71.67;99102.75;4264959;33;35012;-93
2023/01/30 11:27:23;;;;;;;2.17;2.08;;;;;;;1.99;71.53;99088.28;4263088;33;34859;-93
2023/01/30 11:30:03;;;;;;;13.38;5.80;;;;;;;1.83;71.33;99075.97;4251120;33;33727;-92
2023/01/30 11:32:31;;;;;;;2.85;2.65;;;;;;;1.98;72.08;99073.72;4263270;33;33891;-92
2023/01/30 11:35:07;;;;;;;2.35;2.15;;;;;;;2.18;70.81;99079.22;4263615;33;35167;-91
2023/01/30 11:37:45;;;;;;;2.20;2.10;;;;;;;2.13;71.35;99065.44;4263433;33;33368;-89
2023/01/30 11:40:16;;;;;;;2.75;2.55;;;;;;;2.03;71.67;99074.69;4249675;33;33390;-94
2023/01/30 11:42:59;;;;;;;0.60;0.60;;;;;;;2.37;69.83;99069.31;4259322;33;34406;-92
2023/01/30 11:45:36;;;;;;;2.08;1.98;;;;;;;2.23;70.72;99061.34;4249258;33;34940;-90
2023/01/30 11:48:21;;;;;;;0.60;0.60;;;;;;;2.39;70.52;99047.91;4247054;33;34286;-89
2023/01/30 11:51:10;;;;;;;1.15;1.15;;;;;;;2.52;69.40;99043.00;4246189;33;33520;-90
2023/01/30 11:53:42;;;;;;;0.60;0.60;;;;;;;2.16;70.83;99044.09;4250039;33;34429;-89
2023/01/30 11:56:32;;;;;;;1.25;1.25;;;;;;;2.22;70.26;99031.34;4248778;33;33995;-88
2023/01/30 11:59:07;;;;;;;2.35;2.25;;;;;;;2.19;69.99;99037.31;4250593;33;34610;-93
2023/01/30 12:01:36;;;;;;;1.15;1.15;;;;;;;2.55;69.96;99027.63;4235139;33;33306;-89
2023/01/30 12:04:07;;;;;;;1.75;1.65;;;;;;;2.73;68.53;99033.03;4235109;33;33194;-92
2023/01/30 12:06:37;;;;;;;0.82;0.82;;;;;;;2.15;70.59;99052.62;4237614;33;34888;-92